createdAt,value
2023-03-20T00:01:19.764Z,41.28
2023-03-20T00:06:25.600Z,46.17
2023-03-20T00:08:56.480Z,46.10
2023-03-20T00:11:36.065Z,40.95
2023-03-20T00:14:16.093Z,69.30
2023-03-20T00:16:48.988Z,57.50
2023-03-20T00:19:32.261Z,57.80
2023-03-20T00:22:02.872Z,56.15
2023-03-20T00:24:32.628Z,55.47
2023-03-20T00:27:03.697Z,52.50
2023-03-20T00:29:35.342Z,52.55
2023-03-20T00:32:04.593Z,52.47
2023-03-20T00:34:33.890Z,55.10
2023-03-20T00:37:03.744Z,67.63
2023-03-20T00:39:33.376Z,169.77
2023-03-20T00:42:08.988Z,58.85
2023-03-20T00:44:50.191Z,55.63
2023-03-20T00:47:25.435Z,61.70
2023-03-20T00:49:56.902Z,51.78
2023-03-20T00:52:26.354Z,49.67
2023-03-20T00:54:56.265Z,53.47
2023-03-20T00:57:50.702Z,57.90
2023-03-20T01:00:36.517Z,68.28
2023-03-20T01:03:19.496Z,51.10
2023-03-20T01:05:50.412Z,67.47
2023-03-20T01:08:30.069Z,56.80
2023-03-20T01:11:01.211Z,50.55
2023-03-20T01:13:34.032Z,46.95
2023-03-20T01:16:03.415Z,55.60
2023-03-20T01:18:32.686Z,78.57
2023-03-20T01:21:01.957Z,48.70
2023-03-20T01:23:31.352Z,54.15
2023-03-20T01:26:01.499Z,53.70
2023-03-20T01:28:32.621Z,49.35
2023-03-20T01:31:03.725Z,50.92
2023-03-20T01:33:37.742Z,54.85
2023-03-20T01:36:07.407Z,53.17
2023-03-20T01:38:39.940Z,57.03
2023-03-20T01:41:15.205Z,66.13
2023-03-20T01:43:47.869Z,63.33
2023-03-20T01:46:29.369Z,53.13
2023-03-20T01:49:29.939Z,62.65
2023-03-20T01:52:04.091Z,59.35
2023-03-20T01:54:41.293Z,57.30
2023-03-20T02:00:21.803Z,55.22
2023-03-20T02:02:54.368Z,51.75
2023-03-20T02:05:25.360Z,51.00
2023-03-20T02:08:43.736Z,52.63
2023-03-20T02:11:14.573Z,49.85
2023-03-20T02:13:45.342Z,52.53
2023-03-20T02:16:17.867Z,50.15
2023-03-20T02:18:52.545Z,46.03
2023-03-20T02:22:08.235Z,56.35
2023-03-20T02:25:56.938Z,58.95
2023-03-20T02:28:53.369Z,49.22
2023-03-20T02:32:30.900Z,53.63
2023-03-20T02:35:27.516Z,50.72
2023-03-20T02:38:01.904Z,45.75
2023-03-20T02:41:03.050Z,49.42
2023-03-20T02:44:02.362Z,41.88
2023-03-20T02:46:38.455Z,43.40
2023-03-20T02:49:32.801Z,40.58
2023-03-20T02:52:19.233Z,44.67
2023-03-20T02:55:14.563Z,49.97
2023-03-20T02:58:22.745Z,48.08
2023-03-20T03:01:38.473Z,55.35
2023-03-20T03:04:19.558Z,45.67
2023-03-20T03:06:56.788Z,43.92
2023-03-20T03:10:09.494Z,42.33
2023-03-20T03:12:45.893Z,38.90
2023-03-20T03:15:46.656Z,35.25
2023-03-20T03:18:25.534Z,36.47
2023-03-20T03:21:00.879Z,45.60
2023-03-20T03:23:50.904Z,40.47
2023-03-20T03:26:39.682Z,39.72
2023-03-20T03:29:20.738Z,48.78
2023-03-20T03:31:50.603Z,37.10
2023-03-20T03:34:23.398Z,31.98
2023-03-20T03:37:15.579Z,31.80
2023-03-20T03:40:13.759Z,35.47
2023-03-20T03:43:13.879Z,32.83
2023-03-20T03:45:59.483Z,39.40
2023-03-20T03:48:52.420Z,45.55
2023-03-20T03:51:30.406Z,42.03
2023-03-20T03:54:32.308Z,29.23
2023-03-20T03:57:03.624Z,30.17
2023-03-20T03:59:44.750Z,31.42
2023-03-20T04:02:15.813Z,31.85
2023-03-20T04:04:50.778Z,36.17
2023-03-20T04:07:20.116Z,34.70
2023-03-20T04:09:49.548Z,26.55
2023-03-20T04:12:44.393Z,29.60
2023-03-20T04:15:17.004Z,29.58
2023-03-20T04:17:47.110Z,32.88
2023-03-20T04:20:17.265Z,34.05
2023-03-20T04:22:46.552Z,31.50
2023-03-20T04:25:27.623Z,27.77
2023-03-20T04:27:57.044Z,28.52
2023-03-20T04:30:26.194Z,28.70
2023-03-20T04:32:55.482Z,27.52
2023-03-20T04:35:24.676Z,28.63
2023-03-20T04:37:53.856Z,26.55
2023-03-20T04:40:23.088Z,31.35
2023-03-20T04:42:52.304Z,31.77
2023-03-20T04:45:21.770Z,31.30
2023-03-20T04:47:50.892Z,43.03
2023-03-20T04:50:20.196Z,26.42
2023-03-20T04:52:49.328Z,27.75
2023-03-20T04:55:18.610Z,34.55
2023-03-20T04:57:47.986Z,26.15
2023-03-20T05:00:18.419Z,37.70
2023-03-20T05:02:48.165Z,29.48
2023-03-20T05:05:17.333Z,40.33
2023-03-20T05:07:46.541Z,36.97
2023-03-20T05:10:16.473Z,27.60
2023-03-20T05:12:46.157Z,33.97
2023-03-20T05:15:15.849Z,28.80
2023-03-20T05:17:45.125Z,23.60
2023-03-20T05:20:14.644Z,28.10
2023-03-20T05:22:46.563Z,23.27
2023-03-20T05:25:15.897Z,28.25
2023-03-20T05:27:47.758Z,55.60
2023-03-20T05:30:17.587Z,26.00
2023-03-20T05:32:47.168Z,41.08
2023-03-20T05:35:16.341Z,27.30
2023-03-20T05:37:45.567Z,28.02
2023-03-20T05:40:17.841Z,25.25
2023-03-20T05:42:47.765Z,26.38
2023-03-20T05:45:17.011Z,23.92
2023-03-20T05:47:46.436Z,31.67
2023-03-20T05:50:15.851Z,35.30
2023-03-20T05:52:47.487Z,31.30
2023-03-20T05:55:17.196Z,32.40
2023-03-20T05:57:46.682Z,25.98
2023-03-20T06:00:17.582Z,33.90
2023-03-20T06:02:47.785Z,27.50
2023-03-20T06:05:17.500Z,27.88
2023-03-20T06:07:47.518Z,29.10
2023-03-20T06:10:16.996Z,27.23
2023-03-20T06:12:46.791Z,31.45
2023-03-20T06:15:16.067Z,33.45
2023-03-20T06:17:45.315Z,23.30
2023-03-20T06:20:14.982Z,26.02
2023-03-20T06:22:44.209Z,23.92
2023-03-20T06:25:13.539Z,33.25
2023-03-20T06:27:42.796Z,26.23
2023-03-20T06:30:13.076Z,22.65
2023-03-20T06:32:42.587Z,30.48
2023-03-20T06:35:13.258Z,26.38
2023-03-20T06:37:42.974Z,26.85
2023-03-20T06:40:12.841Z,25.05
2023-03-20T06:42:42.170Z,29.30
2023-03-20T06:45:12.210Z,26.58
2023-03-20T06:47:41.798Z,25.00
2023-03-20T06:50:12.050Z,31.13
2023-03-20T06:52:41.862Z,29.35
2023-03-20T06:55:11.471Z,28.83
2023-03-20T06:57:41.434Z,27.10
2023-03-20T07:00:11.630Z,33.28
2023-03-20T07:02:41.307Z,23.75
2023-03-20T07:05:11.338Z,22.80
2023-03-20T07:07:40.550Z,29.23
2023-03-20T07:10:10.934Z,35.60
2023-03-20T07:12:40.712Z,22.35
2023-03-20T07:15:10.548Z,30.67
2023-03-20T07:17:39.647Z,30.80
2023-03-20T07:20:09.754Z,21.48
2023-03-20T07:22:39.458Z,23.48
2023-03-20T07:25:10.752Z,22.15
2023-03-20T07:27:39.928Z,27.58
2023-03-20T07:30:09.913Z,28.08
2023-03-20T07:32:39.096Z,23.20
2023-03-20T07:35:08.832Z,23.90
2023-03-20T07:37:37.953Z,23.25
2023-03-20T07:40:08.131Z,31.52
2023-03-20T07:42:37.643Z,21.20
2023-03-20T07:45:07.817Z,21.50
2023-03-20T07:47:37.532Z,26.63
2023-03-20T07:50:08.405Z,25.25
2023-03-20T07:52:37.737Z,24.05
2023-03-20T07:55:07.436Z,27.40
2023-03-20T07:57:36.628Z,27.00
2023-03-20T08:00:06.493Z,19.65
2023-03-20T08:02:35.651Z,21.77
2023-03-20T08:05:05.350Z,21.48
2023-03-20T08:07:34.567Z,21.45
2023-03-20T08:10:05.139Z,24.88
2023-03-20T08:12:34.266Z,24.30
2023-03-20T08:15:03.714Z,28.60
2023-03-20T08:17:32.929Z,23.83
2023-03-20T08:20:02.214Z,23.67
2023-03-20T08:22:31.556Z,27.90
2023-03-20T08:25:00.653Z,30.48
2023-03-20T08:27:29.807Z,27.52
2023-03-20T08:29:58.992Z,26.10
2023-03-20T08:32:28.623Z,28.08
2023-03-20T08:34:57.776Z,21.85
2023-03-20T08:37:26.948Z,21.30
2023-03-20T08:39:56.194Z,25.38
2023-03-20T08:42:25.324Z,27.08
2023-03-20T08:44:54.480Z,23.50
2023-03-20T08:47:23.804Z,23.30
2023-03-20T08:49:53.268Z,20.65
2023-03-20T08:52:22.371Z,22.95
2023-03-20T08:54:52.200Z,31.17
2023-03-20T08:57:21.366Z,23.77
2023-03-20T08:59:50.466Z,27.77
2023-03-20T09:02:19.691Z,28.98
2023-03-20T09:04:48.994Z,25.95
2023-03-20T09:07:18.157Z,26.00
2023-03-20T09:09:47.335Z,24.42
2023-03-20T09:12:16.777Z,24.17
2023-03-20T09:14:46.667Z,27.38
2023-03-20T09:17:15.836Z,20.58
2023-03-20T09:19:45.726Z,27.33
2023-03-20T09:22:20.779Z,25.27
2023-03-20T09:24:49.929Z,25.48
2023-03-20T09:27:19.187Z,24.88
2023-03-20T09:29:48.325Z,25.08
2023-03-20T09:32:17.926Z,24.52
2023-03-20T09:34:47.146Z,22.73
2023-03-20T09:37:16.572Z,29.13
2023-03-20T09:39:45.666Z,26.70
2023-03-20T09:42:47.633Z,21.42
2023-03-20T09:45:53.065Z,25.42
2023-03-20T09:48:47.055Z,27.55
2023-03-20T09:51:58.624Z,31.92
2023-03-20T09:54:52.586Z,33.30
2023-03-20T09:57:28.752Z,32.03
2023-03-20T10:00:05.417Z,25.52
2023-03-20T10:03:07.330Z,29.13
2023-03-20T10:05:58.170Z,27.58
2023-03-20T10:08:37.317Z,27.00
2023-03-20T10:11:21.773Z,26.98
2023-03-20T10:14:07.556Z,27.10
2023-03-20T10:17:06.252Z,33.25
2023-03-20T10:20:26.213Z,32.70
2023-03-20T10:23:07.463Z,29.65
2023-03-20T10:25:55.211Z,26.25
2023-03-20T10:31:25.289Z,24.38
2023-03-20T10:34:18.047Z,23.45
2023-03-20T10:37:17.037Z,27.48
2023-03-20T10:40:07.865Z,25.52
2023-03-20T10:42:43.642Z,25.98
2023-03-20T10:45:39.287Z,26.38
2023-03-20T10:48:46.858Z,27.33
2023-03-20T10:54:00.914Z,39.20
2023-03-20T10:56:50.658Z,35.17
2023-03-20T10:59:34.534Z,32.65
2023-03-20T11:02:03.682Z,36.63
2023-03-20T11:04:32.828Z,25.73
2023-03-20T11:07:29.923Z,29.17
2023-03-20T11:10:11.910Z,25.55
2023-03-20T11:12:51.033Z,27.52
2023-03-20T11:15:35.518Z,23.70
2023-03-20T11:18:14.938Z,33.65
2023-03-20T11:20:56.935Z,32.17
2023-03-20T11:23:39.462Z,31.52
2023-03-20T11:26:17.183Z,27.70
2023-03-20T11:29:09.137Z,31.70
2023-03-20T11:31:42.249Z,26.30
2023-03-20T11:34:13.846Z,26.05
2023-03-20T11:37:09.232Z,37.95
2023-03-20T11:39:41.042Z,28.30
2023-03-20T11:42:31.375Z,22.58
2023-03-20T11:45:08.256Z,24.10
2023-03-20T11:47:38.344Z,41.28
2023-03-20T11:50:29.045Z,37.28
2023-03-20T11:52:59.010Z,28.65
2023-03-20T11:55:36.476Z,23.05
2023-03-20T11:58:18.403Z,27.35
2023-03-20T12:00:52.650Z,25.70
2023-03-20T12:03:59.676Z,33.03
2023-03-20T12:06:41.778Z,23.17
2023-03-20T12:09:42.709Z,21.05
2023-03-20T12:12:42.129Z,31.13
2023-03-20T12:15:26.040Z,25.50
2023-03-20T12:18:27.081Z,29.42
2023-03-20T12:21:33.098Z,57.72
2023-03-20T12:24:14.916Z,80.03
2023-03-20T12:26:58.096Z,52.83
2023-03-20T12:30:22.895Z,33.13
2023-03-20T12:33:05.044Z,33.50
2023-03-20T12:35:42.709Z,33.63
2023-03-20T12:38:30.002Z,32.00
2023-03-20T12:41:19.240Z,27.77
2023-03-20T12:44:07.062Z,34.90
2023-03-20T12:46:49.056Z,31.45
2023-03-20T12:49:56.897Z,26.90
2023-03-20T12:52:54.110Z,30.55
2023-03-20T12:55:42.182Z,34.72
2023-03-20T12:58:51.006Z,30.23
2023-03-20T13:01:33.184Z,27.15
2023-03-20T13:04:29.662Z,25.33
2023-03-20T13:07:21.960Z,31.75
2023-03-20T13:10:32.903Z,26.63
2023-03-20T13:13:44.771Z,35.28
2023-03-20T13:16:24.459Z,28.45
2023-03-20T13:19:08.577Z,24.75
2023-03-20T13:22:15.744Z,26.52
2023-03-20T13:25:38.111Z,27.15
2023-03-20T13:28:44.189Z,52.72
2023-03-20T13:31:27.353Z,39.55
2023-03-20T13:34:35.155Z,36.00
2023-03-20T13:37:41.613Z,38.97
2023-03-20T13:40:24.743Z,29.88
2023-03-20T13:43:25.332Z,34.70
2023-03-20T13:46:08.205Z,41.95
2023-03-20T13:48:43.992Z,47.08
2023-03-20T13:51:33.544Z,41.60
2023-03-20T13:54:29.697Z,40.83
2023-03-20T13:57:26.644Z,42.72
2023-03-20T14:00:12.727Z,51.58
2023-03-20T14:03:17.162Z,47.00
2023-03-20T14:05:48.471Z,106.22
2023-03-20T14:08:33.466Z,108.28
2023-03-20T14:11:38.159Z,53.13
2023-03-20T14:14:55.781Z,45.55
2023-03-20T14:20:25.349Z,50.45
2023-03-20T14:22:59.555Z,41.88
2023-03-20T14:25:42.806Z,40.28
2023-03-20T14:28:14.749Z,36.65
2023-03-20T14:30:51.761Z,47.35
2023-03-20T14:33:24.029Z,47.58
2023-03-20T14:36:18.936Z,37.08
2023-03-20T14:39:34.865Z,38.45
2023-03-20T14:42:51.223Z,30.65
2023-03-20T14:45:39.183Z,31.92
2023-03-20T14:51:38.481Z,44.42
2023-03-20T14:54:31.769Z,35.20
2023-03-20T14:57:34.040Z,33.55
2023-03-20T15:00:18.483Z,32.40
2023-03-20T15:02:56.956Z,30.80
2023-03-20T15:05:33.953Z,37.03
2023-03-20T15:08:11.307Z,36.85
2023-03-20T15:11:00.692Z,32.17
2023-03-20T15:13:32.009Z,31.48
2023-03-20T15:16:13.665Z,36.25
2023-03-20T15:18:55.443Z,42.13
2023-03-20T15:21:46.289Z,42.22
2023-03-20T15:24:31.183Z,30.25
2023-03-20T15:27:03.660Z,35.55
2023-03-20T15:29:35.498Z,34.25
2023-03-20T15:32:14.361Z,31.35
2023-03-20T15:34:46.828Z,31.40
2023-03-20T15:37:25.194Z,33.25
2023-03-20T15:40:01.404Z,30.52
2023-03-20T15:42:33.907Z,37.35
2023-03-20T15:45:03.237Z,39.10
2023-03-20T15:47:33.141Z,37.30
2023-03-20T15:50:03.683Z,38.22
2023-03-20T15:52:44.796Z,34.67
2023-03-20T15:55:20.958Z,31.95
2023-03-20T15:57:53.584Z,32.95
2023-03-20T16:00:35.200Z,38.80
2023-03-20T16:03:09.861Z,32.03
2023-03-20T16:05:39.347Z,28.38
2023-03-20T16:08:29.848Z,29.00
2023-03-20T16:11:16.490Z,32.70
2023-03-20T16:13:49.651Z,28.13
2023-03-20T16:16:24.904Z,32.97
2023-03-20T16:18:54.460Z,30.80
2023-03-20T16:21:32.650Z,30.50
2023-03-20T16:26:46.832Z,26.42
2023-03-20T16:29:18.084Z,28.08
2023-03-20T16:31:58.631Z,26.10
2023-03-20T16:34:40.478Z,25.77
2023-03-20T16:37:32.538Z,22.30
2023-03-20T16:40:35.778Z,40.97
2023-03-20T16:43:25.435Z,28.25
2023-03-20T16:45:58.070Z,27.77
2023-03-20T16:48:40.171Z,26.88
2023-03-20T16:51:33.191Z,28.60
2023-03-20T16:54:03.323Z,27.27
2023-03-20T16:56:41.506Z,26.98
2023-03-20T17:01:52.605Z,27.73
2023-03-20T17:04:38.156Z,27.20
2023-03-20T17:07:24.989Z,32.25
2023-03-20T17:10:00.997Z,31.20
2023-03-20T17:12:33.983Z,28.20
2023-03-20T17:15:03.646Z,24.70
2023-03-20T17:17:32.820Z,31.75
2023-03-20T17:20:02.387Z,29.35
2023-03-20T17:22:31.758Z,23.77
2023-03-20T17:25:01.304Z,27.08
2023-03-20T17:27:31.857Z,32.15
2023-03-20T17:30:01.032Z,25.88
2023-03-20T17:32:30.597Z,30.65
2023-03-20T17:34:59.765Z,25.13
2023-03-20T17:37:31.647Z,25.65
2023-03-20T17:40:01.896Z,28.70
2023-03-20T17:42:32.500Z,26.80
2023-03-20T17:45:04.634Z,27.83
2023-03-20T17:47:33.955Z,28.80
2023-03-20T17:50:03.103Z,28.25
2023-03-20T17:52:32.608Z,26.33
2023-03-20T17:55:02.019Z,33.40
2023-03-20T17:57:40.586Z,33.40
2023-03-20T18:00:23.612Z,31.90
2023-03-20T18:02:53.517Z,35.80
2023-03-20T18:05:22.771Z,34.00
2023-03-20T18:07:54.704Z,37.00
2023-03-20T18:10:36.166Z,30.05
2023-03-20T18:13:09.230Z,36.92
2023-03-20T18:15:41.165Z,34.72
2023-03-20T18:18:10.713Z,29.13
2023-03-20T18:20:42.390Z,36.03
2023-03-20T18:23:12.695Z,32.60
2023-03-20T18:25:42.156Z,28.90
2023-03-20T18:28:23.629Z,37.47
2023-03-20T18:30:53.352Z,29.95
2023-03-20T18:33:28.665Z,30.92
2023-03-20T18:35:58.083Z,35.97
2023-03-20T18:38:29.065Z,29.80
2023-03-20T18:40:58.708Z,36.72
2023-03-20T18:43:27.914Z,35.53
2023-03-20T18:45:57.351Z,35.67
2023-03-20T18:48:28.310Z,28.33
2023-03-20T18:51:02.264Z,35.45
2023-03-20T18:53:32.181Z,38.03
2023-03-20T18:56:02.215Z,34.22
2023-03-20T18:58:32.662Z,40.08
2023-03-20T19:01:02.198Z,34.17
2023-03-20T19:03:31.491Z,34.00
2023-03-20T19:06:01.110Z,38.25
2023-03-20T19:08:31.124Z,31.27
2023-03-20T19:11:00.480Z,36.22
2023-03-20T19:13:29.866Z,35.13
2023-03-20T19:15:59.173Z,35.78
2023-03-20T19:18:29.558Z,32.67
2023-03-20T19:20:59.847Z,38.47
2023-03-20T19:23:32.661Z,32.95
2023-03-20T19:26:02.146Z,35.63
2023-03-20T19:28:40.472Z,45.35
2023-03-20T19:31:11.879Z,38.35
2023-03-20T19:33:42.054Z,38.22
2023-03-20T19:36:30.001Z,34.50
2023-03-20T19:39:01.978Z,36.10
2023-03-20T19:41:33.235Z,41.58
2023-03-20T19:44:02.559Z,36.25
2023-03-20T19:46:41.006Z,34.65
2023-03-20T19:49:30.529Z,35.38
2023-03-20T19:52:00.340Z,37.35
2023-03-20T19:54:29.661Z,39.67
2023-03-20T19:56:58.916Z,36.15
2023-03-20T19:59:29.642Z,37.60
2023-03-20T20:01:59.499Z,33.17
2023-03-20T20:04:29.409Z,37.30
2023-03-20T20:07:32.997Z,36.20
2023-03-20T20:09:48.090Z,36.53
2023-03-20T20:12:18.297Z,35.92
2023-03-20T20:14:48.046Z,32.95
2023-03-20T20:17:17.200Z,45.42
2023-03-20T20:19:46.449Z,37.67
2023-03-20T20:22:26.581Z,39.03
2023-03-20T20:24:56.174Z,46.50
2023-03-20T20:27:26.365Z,43.13
2023-03-20T20:29:56.398Z,48.90
2023-03-20T20:32:29.449Z,37.00
2023-03-20T20:40:37.875Z,40.75
2023-03-20T20:43:10.343Z,37.58
2023-03-20T20:45:40.909Z,46.60
2023-03-20T20:48:11.339Z,38.97
2023-03-20T20:50:44.222Z,36.28
2023-03-20T20:53:13.596Z,36.33
2023-03-20T20:55:42.804Z,36.83
2023-03-20T20:58:12.749Z,35.95
2023-03-20T21:00:51.667Z,49.55
2023-03-20T21:03:22.348Z,41.45
2023-03-20T21:05:52.401Z,37.35
2023-03-20T21:08:21.812Z,34.95
2023-03-20T21:10:51.830Z,41.08
2023-03-20T21:13:20.983Z,36.83
2023-03-20T21:15:59.484Z,40.25
2023-03-20T21:18:28.752Z,37.92
2023-03-20T21:21:10.906Z,38.97
2023-03-20T21:23:41.026Z,41.92
2023-03-20T21:26:10.980Z,35.28
2023-03-20T21:28:40.147Z,42.83
2023-03-20T21:31:23.843Z,32.95
2023-03-20T21:33:56.127Z,35.88
2023-03-20T21:36:25.666Z,40.33
2023-03-20T21:39:08.389Z,39.08
2023-03-20T21:41:41.459Z,37.38
2023-03-20T21:44:16.592Z,37.60
2023-03-20T21:53:00.366Z,48.15
2023-03-20T21:58:41.347Z,49.45
2023-03-20T22:01:39.685Z,40.40
2023-03-20T22:08:26.969Z,40.75
2023-03-20T22:11:56.385Z,42.13
2023-03-20T22:14:19.116Z,39.25
2023-03-20T22:17:19.843Z,35.85
2023-03-20T22:22:42.430Z,38.80
2023-03-20T22:25:28.302Z,42.63
2023-03-20T22:28:09.171Z,38.22
2023-03-20T22:31:17.316Z,44.95
2023-03-20T22:47:19.524Z,53.42
2023-03-20T22:49:48.830Z,48.80
2023-03-20T22:52:31.819Z,49.28
2023-03-20T22:55:08.155Z,47.03
2023-03-20T22:57:45.472Z,48.58
2023-03-20T23:00:22.860Z,45.30
2023-03-20T23:02:54.930Z,44.85
2023-03-20T23:05:26.789Z,48.72
2023-03-20T23:07:57.104Z,44.33
2023-03-20T23:10:26.385Z,45.00
2023-03-20T23:12:55.898Z,48.30
2023-03-20T23:15:26.040Z,38.35
2023-03-20T23:17:55.391Z,42.08
2023-03-20T23:20:24.978Z,41.55
2023-03-20T23:22:55.426Z,39.80
2023-03-20T23:25:38.313Z,48.65
2023-03-20T23:28:10.785Z,41.13
2023-03-20T23:30:47.995Z,38.85
2023-03-20T23:33:23.409Z,36.72
2023-03-20T23:36:12.477Z,45.85
2023-03-20T23:38:45.927Z,44.67
2023-03-20T23:41:16.025Z,44.47
2023-03-20T23:43:45.342Z,49.25
2023-03-20T23:46:15.036Z,43.25
2023-03-20T23:48:44.342Z,50.10
2023-03-20T23:51:13.563Z,51.50
2023-03-20T23:53:42.884Z,54.53
2023-03-20T23:56:14.250Z,54.58
2023-03-20T23:58:54.986Z,61.95
